To NAV CANADA Home Page Login to a new session Search on AWWS site Feedback and Comments Disclaimer Vers la page française équivalente Tips FAQ What's new on the site To the Forecasts and Observations / NOTAM section To "File a Flight Plan" website Publications and other links Update of the User's profile FIC Telephone Numbers My Weather Data Folder Route Weather Data Regional Weather Data Local Weather Data To the Forecasts and Observations / NOTAM section
Request Generated 04/23/2014 at 14:05:05 UTC . Weather information available at that time is displayed.

METAR/TAF

ST. ANTHONY/NL    (show WxCam)

METAR CYAY 231300Z AUTO 07012KT 9SM OVC060 M01/M04 A2999 RMK SLP156=
METAR CYAY 231200Z AUTO 08013KT 9SM OVC060 M01/M04 A2998 RMK SLP154=
METAR CYAY 231100Z AUTO 08011KT 9SM OVC055 M02/M04 A2998 RMK SLP153=

TAF CYAY 231338Z 2314/2402 10015KT P6SM OVC060
FM240100 07015KT P6SM FEW008 OVC090
RMK FCST BASED ON AUTO OBS. NXT FCST BY 232000Z=
Your time UTC time
Weather data provided by Environment Canada and NAV CANADA